sensor_id;sensor_type;location;lat;lon;timestamp;P1;durP1;ratioP1;P2;durP2;ratioP2
22794;SDS011;11564;50.920;11.612;2023-05-16T00:01:56;8.47;;;7.77;;
22794;SDS011;11564;50.920;11.612;2023-05-16T00:04:22;7.57;;;6.90;;
22794;SDS011;11564;50.920;11.612;2023-05-16T00:06:48;7.43;;;6.67;;
22794;SDS011;11564;50.920;11.612;2023-05-16T00:09:14;12.03;;;7.23;;
22794;SDS011;11564;50.920;11.612;2023-05-16T00:11:40;9.00;;;8.20;;
22794;SDS011;11564;50.920;11.612;2023-05-16T00:14:05;8.90;;;7.17;;
22794;SDS011;11564;50.920;11.612;2023-05-16T00:16:31;8.03;;;7.40;;
22794;SDS011;11564;50.920;11.612;2023-05-16T00:18:57;8.87;;;7.97;;
22794;SDS011;11564;50.920;11.612;2023-05-16T00:21:25;11.43;;;7.93;;
22794;SDS011;11564;50.920;11.612;2023-05-16T00:23:50;7.37;;;6.87;;
22794;SDS011;11564;50.920;11.612;2023-05-16T00:26:17;7.43;;;6.87;;
22794;SDS011;11564;50.920;11.612;2023-05-16T00:28:42;8.03;;;7.33;;
22794;SDS011;11564;50.920;11.612;2023-05-16T00:31:08;9.80;;;7.50;;
22794;SDS011;11564;50.920;11.612;2023-05-16T00:33:34;8.97;;;8.17;;
22794;SDS011;11564;50.920;11.612;2023-05-16T00:36:00;7.43;;;6.93;;
22794;SDS011;11564;50.920;11.612;2023-05-16T00:38:25;8.00;;;7.20;;
22794;SDS011;11564;50.920;11.612;2023-05-16T00:40:51;9.63;;;6.20;;
22794;SDS011;11564;50.920;11.612;2023-05-16T00:43:17;7.87;;;7.20;;
22794;SDS011;11564;50.920;11.612;2023-05-16T00:45:42;7.80;;;7.07;;
22794;SDS011;11564;50.920;11.612;2023-05-16T00:48:10;16.53;;;7.90;;
22794;SDS011;11564;50.920;11.612;2023-05-16T00:50:38;8.53;;;7.10;;
22794;SDS011;11564;50.920;11.612;2023-05-16T00:53:03;8.43;;;7.73;;
22794;SDS011;11564;50.920;11.612;2023-05-16T00:55:29;8.40;;;6.97;;
22794;SDS011;11564;50.920;11.612;2023-05-16T00:57:55;7.90;;;7.20;;
22794;SDS011;11564;50.920;11.612;2023-05-16T01:00:23;8.20;;;7.47;;
22794;SDS011;11564;50.920;11.612;2023-05-16T01:02:48;11.17;;;8.17;;
22794;SDS011;11564;50.920;11.612;2023-05-16T01:05:17;8.67;;;7.90;;
22794;SDS011;11564;50.920;11.612;2023-05-16T01:07:43;12.23;;;7.53;;
22794;SDS011;11564;50.920;11.612;2023-05-16T01:10:09;8.10;;;7.30;;
22794;SDS011;11564;50.920;11.612;2023-05-16T01:15:33;9.53;;;7.53;;
22794;SDS011;11564;50.920;11.612;2023-05-16T01:18:12;8.13;;;7.33;;
22794;SDS011;11564;50.920;11.612;2023-05-16T01:20:54;9.77;;;8.87;;
22794;SDS011;11564;50.920;11.612;2023-05-16T01:23:44;9.67;;;8.37;;
22794;SDS011;11564;50.920;11.612;2023-05-16T01:26:18;10.57;;;8.57;;
22794;SDS011;11564;50.920;11.612;2023-05-16T01:28:52;9.87;;;9.00;;
22794;SDS011;11564;50.920;11.612;2023-05-16T01:31:22;9.60;;;8.63;;
22794;SDS011;11564;50.920;11.612;2023-05-16T01:33:48;10.40;;;8.50;;
22794;SDS011;11564;50.920;11.612;2023-05-16T01:36:23;11.20;;;9.43;;
22794;SDS011;11564;50.920;11.612;2023-05-16T01:39:10;9.40;;;8.50;;
22794;SDS011;11564;50.920;11.612;2023-05-16T01:44:43;9.70;;;8.70;;
22794;SDS011;11564;50.920;11.612;2023-05-16T01:47:15;15.80;;;10.43;;
22794;SDS011;11564;50.920;11.612;2023-05-16T01:49:45;13.37;;;10.40;;
22794;SDS011;11564;50.920;11.612;2023-05-16T01:52:20;11.47;;;10.27;;
22794;SDS011;11564;50.920;11.612;2023-05-16T01:54:51;12.37;;;11.00;;
22794;SDS011;11564;50.920;11.612;2023-05-16T01:57:19;11.93;;;10.23;;
22794;SDS011;11564;50.920;11.612;2023-05-16T01:59:50;14.73;;;12.07;;
22794;SDS011;11564;50.920;11.612;2023-05-16T02:02:19;13.17;;;11.83;;
22794;SDS011;11564;50.920;11.612;2023-05-16T02:04:45;12.87;;;11.27;;
22794;SDS011;11564;50.920;11.612;2023-05-16T02:07:11;16.20;;;11.27;;
22794;SDS011;11564;50.920;11.612;2023-05-16T02:09:38;12.73;;;11.43;;
22794;SDS011;11564;50.920;11.612;2023-05-16T02:12:04;10.50;;;9.50;;
22794;SDS011;11564;50.920;11.612;2023-05-16T02:14:30;12.93;;;11.20;;
22794;SDS011;11564;50.920;11.612;2023-05-16T02:16:56;11.27;;;10.07;;
22794;SDS011;11564;50.920;11.612;2023-05-16T02:19:22;13.47;;;11.63;;
22794;SDS011;11564;50.920;11.612;2023-05-16T02:21:48;13.93;;;11.77;;
22794;SDS011;11564;50.920;11.612;2023-05-16T02:24:15;15.40;;;11.37;;
22794;SDS011;11564;50.920;11.612;2023-05-16T02:26:40;12.47;;;11.20;;
22794;SDS011;11564;50.920;11.612;2023-05-16T02:29:06;16.87;;;10.07;;
22794;SDS011;11564;50.920;11.612;2023-05-16T02:31:32;14.27;;;11.83;;
22794;SDS011;11564;50.920;11.612;2023-05-16T02:33:58;13.70;;;12.20;;
22794;SDS011;11564;50.920;11.612;2023-05-16T02:36:25;13.00;;;11.80;;
22794;SDS011;11564;50.920;11.612;2023-05-16T02:38:51;14.53;;;12.60;;
22794;SDS011;11564;50.920;11.612;2023-05-16T02:41:17;14.13;;;11.20;;
22794;SDS011;11564;50.920;11.612;2023-05-16T02:43:43;15.63;;;11.97;;
22794;SDS011;11564;50.920;11.612;2023-05-16T02:46:24;13.70;;;12.30;;
22794;SDS011;11564;50.920;11.612;2023-05-16T02:48:52;14.10;;;12.20;;
22794;SDS011;11564;50.920;11.612;2023-05-16T02:51:22;12.10;;;10.90;;
22794;SDS011;11564;50.920;11.612;2023-05-16T02:53:49;13.83;;;12.03;;
22794;SDS011;11564;50.920;11.612;2023-05-16T02:56:15;12.30;;;11.07;;
22794;SDS011;11564;50.920;11.612;2023-05-16T02:58:41;16.57;;;12.47;;
22794;SDS011;11564;50.920;11.612;2023-05-16T03:01:07;18.43;;;13.27;;
22794;SDS011;11564;50.920;11.612;2023-05-16T03:03:34;13.17;;;11.90;;
22794;SDS011;11564;50.920;11.612;2023-05-16T03:06:01;17.50;;;14.30;;
22794;SDS011;11564;50.920;11.612;2023-05-16T03:08:27;17.73;;;14.30;;
22794;SDS011;11564;50.920;11.612;2023-05-16T03:10:52;15.50;;;13.80;;
22794;SDS011;11564;50.920;11.612;2023-05-16T03:13:18;14.43;;;12.60;;
22794;SDS011;11564;50.920;11.612;2023-05-16T03:15:44;17.33;;;14.00;;
22794;SDS011;11564;50.920;11.612;2023-05-16T03:18:10;17.27;;;14.40;;
22794;SDS011;11564;50.920;11.612;2023-05-16T03:20:36;17.73;;;15.60;;
22794;SDS011;11564;50.920;11.612;2023-05-16T03:23:02;21.70;;;15.63;;
22794;SDS011;11564;50.920;11.612;2023-05-16T03:25:31;15.87;;;14.27;;
22794;SDS011;11564;50.920;11.612;2023-05-16T03:27:57;23.23;;;16.70;;
22794;SDS011;11564;50.920;11.612;2023-05-16T03:30:23;20.93;;;17.60;;
22794;SDS011;11564;50.920;11.612;2023-05-16T03:32:50;19.00;;;16.33;;
22794;SDS011;11564;50.920;11.612;2023-05-16T03:35:16;23.37;;;18.43;;
22794;SDS011;11564;50.920;11.612;2023-05-16T03:37:42;18.60;;;16.67;;
22794;SDS011;11564;50.920;11.612;2023-05-16T03:40:08;33.10;;;17.17;;
22794;SDS011;11564;50.920;11.612;2023-05-16T03:42:35;21.50;;;16.90;;
22794;SDS011;11564;50.920;11.612;2023-05-16T03:45:00;20.00;;;17.60;;
22794;SDS011;11564;50.920;11.612;2023-05-16T03:47:27;20.93;;;17.20;;
22794;SDS011;11564;50.920;11.612;2023-05-16T03:49:55;20.57;;;18.17;;
22794;SDS011;11564;50.920;11.612;2023-05-16T03:52:20;22.20;;;17.90;;
22794;SDS011;11564;50.920;11.612;2023-05-16T03:54:46;21.40;;;17.07;;
22794;SDS011;11564;50.920;11.612;2023-05-16T03:57:12;41.93;;;19.50;;
22794;SDS011;11564;50.920;11.612;2023-05-16T03:59:37;32.70;;;21.53;;
22794;SDS011;11564;50.920;11.612;2023-05-16T04:02:03;28.83;;;22.77;;
22794;SDS011;11564;50.920;11.612;2023-05-16T04:04:29;25.70;;;22.03;;
22794;SDS011;11564;50.920;11.612;2023-05-16T04:06:55;27.90;;;22.40;;
22794;SDS011;11564;50.920;11.612;2023-05-16T04:09:21;30.30;;;20.43;;
22794;SDS011;11564;50.920;11.612;2023-05-16T04:11:46;27.60;;;21.47;;
22794;SDS011;11564;50.920;11.612;2023-05-16T04:14:12;29.17;;;21.67;;
22794;SDS011;11564;50.920;11.612;2023-05-16T04:16:39;23.30;;;18.70;;
22794;SDS011;11564;50.920;11.612;2023-05-16T04:19:05;24.87;;;19.17;;
22794;SDS011;11564;50.920;11.612;2023-05-16T04:21:31;24.90;;;19.50;;
22794;SDS011;11564;50.920;11.612;2023-05-16T04:23:57;24.27;;;19.80;;
22794;SDS011;11564;50.920;11.612;2023-05-16T04:26:23;21.27;;;18.93;;
22794;SDS011;11564;50.920;11.612;2023-05-16T04:28:49;20.93;;;18.50;;
22794;SDS011;11564;50.920;11.612;2023-05-16T04:31:14;21.97;;;19.47;;
22794;SDS011;11564;50.920;11.612;2023-05-16T04:33:40;20.83;;;18.50;;
22794;SDS011;11564;50.920;11.612;2023-05-16T04:36:06;31.67;;;20.80;;
22794;SDS011;11564;50.920;11.612;2023-05-16T04:38:32;26.00;;;20.30;;
22794;SDS011;11564;50.920;11.612;2023-05-16T04:40:57;20.90;;;17.60;;
22794;SDS011;11564;50.920;11.612;2023-05-16T04:43:24;20.53;;;16.97;;
22794;SDS011;11564;50.920;11.612;2023-05-16T04:45:50;20.60;;;16.73;;
22794;SDS011;11564;50.920;11.612;2023-05-16T04:48:18;15.90;;;14.37;;
22794;SDS011;11564;50.920;11.612;2023-05-16T04:50:43;16.33;;;13.63;;
22794;SDS011;11564;50.920;11.612;2023-05-16T04:53:09;16.67;;;14.87;;
22794;SDS011;11564;50.920;11.612;2023-05-16T04:55:35;15.93;;;13.60;;
22794;SDS011;11564;50.920;11.612;2023-05-16T04:58:01;18.70;;;13.33;;
22794;SDS011;11564;50.920;11.612;2023-05-16T05:00:26;17.80;;;12.70;;
22794;SDS011;11564;50.920;11.612;2023-05-16T05:02:52;17.07;;;13.87;;
22794;SDS011;11564;50.920;11.612;2023-05-16T05:05:18;16.80;;;13.13;;
22794;SDS011;11564;50.920;11.612;2023-05-16T05:07:44;15.30;;;12.83;;
22794;SDS011;11564;50.920;11.612;2023-05-16T05:10:09;17.50;;;12.43;;
22794;SDS011;11564;50.920;11.612;2023-05-16T05:12:35;12.93;;;11.77;;
22794;SDS011;11564;50.920;11.612;2023-05-16T05:15:01;14.80;;;12.80;;
22794;SDS011;11564;50.920;11.612;2023-05-16T05:17:27;14.37;;;11.70;;
22794;SDS011;11564;50.920;11.612;2023-05-16T05:19:54;14.33;;;11.80;;
22794;SDS011;11564;50.920;11.612;2023-05-16T05:22:20;10.43;;;9.53;;
22794;SDS011;11564;50.920;11.612;2023-05-16T05:24:46;17.80;;;11.40;;
22794;SDS011;11564;50.920;11.612;2023-05-16T05:27:11;14.50;;;11.20;;
22794;SDS011;11564;50.920;11.612;2023-05-16T05:29:37;11.60;;;10.50;;
22794;SDS011;11564;50.920;11.612;2023-05-16T05:32:03;13.07;;;10.80;;
22794;SDS011;11564;50.920;11.612;2023-05-16T05:34:29;13.70;;;12.30;;
22794;SDS011;11564;50.920;11.612;2023-05-16T05:36:55;16.13;;;12.40;;
22794;SDS011;11564;50.920;11.612;2023-05-16T05:39:21;14.37;;;12.03;;
22794;SDS011;11564;50.920;11.612;2023-05-16T05:41:46;14.70;;;10.20;;
22794;SDS011;11564;50.920;11.612;2023-05-16T05:44:12;10.50;;;9.53;;
22794;SDS011;11564;50.920;11.612;2023-05-16T05:46:38;12.00;;;10.70;;
22794;SDS011;11564;50.920;11.612;2023-05-16T05:49:04;11.20;;;10.10;;
22794;SDS011;11564;50.920;11.612;2023-05-16T05:51:30;11.03;;;9.87;;
22794;SDS011;11564;50.920;11.612;2023-05-16T05:53:56;11.10;;;8.50;;
22794;SDS011;11564;50.920;11.612;2023-05-16T05:56:21;13.10;;;10.93;;
22794;SDS011;11564;50.920;11.612;2023-05-16T05:58:48;11.23;;;10.10;;
22794;SDS011;11564;50.920;11.612;2023-05-16T06:01:15;13.10;;;9.67;;
22794;SDS011;11564;50.920;11.612;2023-05-16T06:03:40;11.80;;;10.30;;
22794;SDS011;11564;50.920;11.612;2023-05-16T06:06:07;10.73;;;8.70;;
22794;SDS011;11564;50.920;11.612;2023-05-16T06:08:33;11.00;;;9.17;;
22794;SDS011;11564;50.920;11.612;2023-05-16T06:10:59;9.63;;;8.73;;
22794;SDS011;11564;50.920;11.612;2023-05-16T06:13:25;11.23;;;10.00;;
22794;SDS011;11564;50.920;11.612;2023-05-16T06:15:51;9.97;;;9.00;;
22794;SDS011;11564;50.920;11.612;2023-05-16T06:18:17;9.23;;;8.33;;
22794;SDS011;11564;50.920;11.612;2023-05-16T06:20:43;10.13;;;9.13;;
22794;SDS011;11564;50.920;11.612;2023-05-16T06:23:09;14.50;;;8.50;;
22794;SDS011;11564;50.920;11.612;2023-05-16T06:25:35;11.37;;;8.70;;
22794;SDS011;11564;50.920;11.612;2023-05-16T06:28:00;10.20;;;8.30;;
22794;SDS011;11564;50.920;11.612;2023-05-16T06:30:26;11.77;;;9.17;;
22794;SDS011;11564;50.920;11.612;2023-05-16T06:32:52;8.93;;;8.03;;
22794;SDS011;11564;50.920;11.612;2023-05-16T06:35:17;9.20;;;8.23;;
22794;SDS011;11564;50.920;11.612;2023-05-16T06:37:43;9.13;;;8.10;;
22794;SDS011;11564;50.920;11.612;2023-05-16T06:40:10;12.73;;;8.87;;
22794;SDS011;11564;50.920;11.612;2023-05-16T06:42:36;12.53;;;8.70;;
22794;SDS011;11564;50.920;11.612;2023-05-16T06:45:02;8.77;;;7.87;;
22794;SDS011;11564;50.920;11.612;2023-05-16T06:47:28;8.77;;;7.97;;
22794;SDS011;11564;50.920;11.612;2023-05-16T06:49:53;8.63;;;7.53;;
22794;SDS011;11564;50.920;11.612;2023-05-16T06:52:19;10.23;;;7.57;;
22794;SDS011;11564;50.920;11.612;2023-05-16T06:54:45;8.80;;;7.90;;
22794;SDS011;11564;50.920;11.612;2023-05-16T06:57:11;7.30;;;6.60;;
22794;SDS011;11564;50.920;11.612;2023-05-16T06:59:37;11.43;;;7.67;;
22794;SDS011;11564;50.920;11.612;2023-05-16T07:02:03;11.13;;;7.63;;
22794;SDS011;11564;50.920;11.612;2023-05-16T07:04:29;11.13;;;8.10;;
22794;SDS011;11564;50.920;11.612;2023-05-16T07:06:55;11.60;;;8.50;;
22794;SDS011;11564;50.920;11.612;2023-05-16T07:09:21;8.60;;;7.80;;
22794;SDS011;11564;50.920;11.612;2023-05-16T07:11:46;8.43;;;7.57;;
22794;SDS011;11564;50.920;11.612;2023-05-16T07:14:12;10.10;;;7.10;;
22794;SDS011;11564;50.920;11.612;2023-05-16T07:16:38;8.60;;;7.03;;
22794;SDS011;11564;50.920;11.612;2023-05-16T07:19:03;7.80;;;7.10;;
22794;SDS011;11564;50.920;11.612;2023-05-16T07:21:29;8.83;;;7.97;;
22794;SDS011;11564;50.920;11.612;2023-05-16T07:23:56;7.90;;;6.70;;
22794;SDS011;11564;50.920;11.612;2023-05-16T07:26:21;8.93;;;6.83;;
22794;SDS011;11564;50.920;11.612;2023-05-16T07:28:51;7.57;;;6.00;;
22794;SDS011;11564;50.920;11.612;2023-05-16T07:31:16;8.50;;;7.63;;
22794;SDS011;11564;50.920;11.612;2023-05-16T07:33:43;8.30;;;6.77;;
22794;SDS011;11564;50.920;11.612;2023-05-16T07:36:10;7.00;;;6.40;;
22794;SDS011;11564;50.920;11.612;2023-05-16T07:38:36;6.70;;;6.10;;
22794;SDS011;11564;50.920;11.612;2023-05-16T07:41:02;7.37;;;6.67;;
22794;SDS011;11564;50.920;11.612;2023-05-16T07:43:28;5.87;;;5.43;;
22794;SDS011;11564;50.920;11.612;2023-05-16T07:45:53;6.17;;;5.57;;
22794;SDS011;11564;50.920;11.612;2023-05-16T07:48:20;5.33;;;4.90;;
22794;SDS011;11564;50.920;11.612;2023-05-16T07:50:46;6.10;;;5.40;;
22794;SDS011;11564;50.920;11.612;2023-05-16T07:53:11;6.17;;;5.67;;
22794;SDS011;11564;50.920;11.612;2023-05-16T07:55:37;5.93;;;5.23;;
22794;SDS011;11564;50.920;11.612;2023-05-16T07:58:02;6.43;;;5.80;;
22794;SDS011;11564;50.920;11.612;2023-05-16T08:00:28;5.07;;;4.67;;
22794;SDS011;11564;50.920;11.612;2023-05-16T08:02:54;6.97;;;5.30;;
22794;SDS011;11564;50.920;11.612;2023-05-16T08:05:21;5.47;;;5.07;;
22794;SDS011;11564;50.920;11.612;2023-05-16T08:07:47;5.60;;;5.10;;
22794;SDS011;11564;50.920;11.612;2023-05-16T08:10:12;5.80;;;4.73;;
22794;SDS011;11564;50.920;11.612;2023-05-16T08:12:38;6.27;;;5.70;;
22794;SDS011;11564;50.920;11.612;2023-05-16T08:15:04;5.00;;;4.60;;
22794;SDS011;11564;50.920;11.612;2023-05-16T08:17:30;7.87;;;4.40;;
22794;SDS011;11564;50.920;11.612;2023-05-16T08:19:56;6.50;;;5.90;;
22794;SDS011;11564;50.920;11.612;2023-05-16T08:22:23;5.60;;;5.10;;
22794;SDS011;11564;50.920;11.612;2023-05-16T08:24:49;6.50;;;5.20;;
22794;SDS011;11564;50.920;11.612;2023-05-16T08:27:15;6.27;;;5.70;;
22794;SDS011;11564;50.920;11.612;2023-05-16T08:29:40;6.00;;;5.20;;
22794;SDS011;11564;50.920;11.612;2023-05-16T08:32:07;7.63;;;4.90;;
22794;SDS011;11564;50.920;11.612;2023-05-16T08:34:34;5.50;;;5.07;;
22794;SDS011;11564;50.920;11.612;2023-05-16T08:37:01;4.90;;;4.40;;
22794;SDS011;11564;50.920;11.612;2023-05-16T08:39:26;4.67;;;4.30;;
22794;SDS011;11564;50.920;11.612;2023-05-16T08:41:52;5.10;;;4.70;;
22794;SDS011;11564;50.920;11.612;2023-05-16T08:44:18;5.93;;;5.30;;
22794;SDS011;11564;50.920;11.612;2023-05-16T08:46:49;4.70;;;4.40;;
22794;SDS011;11564;50.920;11.612;2023-05-16T08:49:20;5.13;;;4.60;;
22794;SDS011;11564;50.920;11.612;2023-05-16T08:51:46;5.90;;;5.23;;
22794;SDS011;11564;50.920;11.612;2023-05-16T08:54:13;4.70;;;4.30;;
22794;SDS011;11564;50.920;11.612;2023-05-16T08:56:40;4.83;;;4.43;;
22794;SDS011;11564;50.920;11.612;2023-05-16T08:59:06;7.07;;;5.50;;
22794;SDS011;11564;50.920;11.612;2023-05-16T09:01:33;10.70;;;5.47;;
22794;SDS011;11564;50.920;11.612;2023-05-16T09:03:59;6.20;;;5.70;;
22794;SDS011;11564;50.920;11.612;2023-05-16T09:06:25;6.80;;;6.20;;
22794;SDS011;11564;50.920;11.612;2023-05-16T09:08:52;5.53;;;5.03;;
22794;SDS011;11564;50.920;11.612;2023-05-16T09:11:18;7.00;;;4.50;;
22794;SDS011;11564;50.920;11.612;2023-05-16T09:13:44;6.33;;;5.73;;
22794;SDS011;11564;50.920;11.612;2023-05-16T09:16:10;5.77;;;5.37;;
22794;SDS011;11564;50.920;11.612;2023-05-16T09:18:38;5.30;;;4.80;;
22794;SDS011;11564;50.920;11.612;2023-05-16T09:21:04;5.20;;;4.67;;
22794;SDS011;11564;50.920;11.612;2023-05-16T09:23:33;4.93;;;4.60;;
22794;SDS011;11564;50.920;11.612;2023-05-16T09:25:59;4.50;;;4.10;;
22794;SDS011;11564;50.920;11.612;2023-05-16T09:28:25;4.50;;;4.20;;
22794;SDS011;11564;50.920;11.612;2023-05-16T09:30:52;5.17;;;4.70;;
22794;SDS011;11564;50.920;11.612;2023-05-16T09:33:21;6.30;;;4.63;;
22794;SDS011;11564;50.920;11.612;2023-05-16T09:35:53;4.80;;;4.43;;
22794;SDS011;11564;50.920;11.612;2023-05-16T09:38:28;5.77;;;4.40;;
22794;SDS011;11564;50.920;11.612;2023-05-16T09:40:54;5.03;;;4.63;;
22794;SDS011;11564;50.920;11.612;2023-05-16T09:43:24;4.70;;;4.03;;
22794;SDS011;11564;50.920;11.612;2023-05-16T09:45:51;6.60;;;5.10;;
22794;SDS011;11564;50.920;11.612;2023-05-16T09:48:17;5.53;;;4.30;;
22794;SDS011;11564;50.920;11.612;2023-05-16T09:50:47;5.70;;;3.83;;
22794;SDS011;11564;50.920;11.612;2023-05-16T09:53:16;4.20;;;3.90;;
22794;SDS011;11564;50.920;11.612;2023-05-16T09:55:42;3.40;;;3.20;;
22794;SDS011;11564;50.920;11.612;2023-05-16T09:58:07;6.80;;;3.47;;
22794;SDS011;11564;50.920;11.612;2023-05-16T10:00:33;3.40;;;3.10;;
22794;SDS011;11564;50.920;11.612;2023-05-16T10:02:59;4.13;;;2.83;;
22794;SDS011;11564;50.920;11.612;2023-05-16T10:05:29;3.53;;;3.33;;
22794;SDS011;11564;50.920;11.612;2023-05-16T10:07:56;6.47;;;4.20;;
22794;SDS011;11564;50.920;11.612;2023-05-16T10:10:22;3.53;;;3.30;;
22794;SDS011;11564;50.920;11.612;2023-05-16T10:12:49;4.30;;;4.00;;
22794;SDS011;11564;50.920;11.612;2023-05-16T10:15:15;5.97;;;4.70;;
22794;SDS011;11564;50.920;11.612;2023-05-16T10:17:42;4.50;;;4.00;;
22794;SDS011;11564;50.920;11.612;2023-05-16T10:20:11;3.93;;;3.70;;
22794;SDS011;11564;50.920;11.612;2023-05-16T10:22:41;3.83;;;3.63;;
22794;SDS011;11564;50.920;11.612;2023-05-16T10:25:11;4.80;;;4.33;;
22794;SDS011;11564;50.920;11.612;2023-05-16T10:27:40;4.60;;;3.70;;
22794;SDS011;11564;50.920;11.612;2023-05-16T10:30:06;7.13;;;4.10;;
22794;SDS011;11564;50.920;11.612;2023-05-16T10:32:34;5.13;;;4.73;;
22794;SDS011;11564;50.920;11.612;2023-05-16T10:35:01;3.67;;;3.30;;
22794;SDS011;11564;50.920;11.612;2023-05-16T10:37:28;3.83;;;3.57;;
22794;SDS011;11564;50.920;11.612;2023-05-16T10:39:56;7.30;;;4.40;;
22794;SDS011;11564;50.920;11.612;2023-05-16T10:42:24;7.57;;;4.73;;
22794;SDS011;11564;50.920;11.612;2023-05-16T10:44:52;4.63;;;4.00;;
22794;SDS011;11564;50.920;11.612;2023-05-16T10:47:19;4.43;;;4.00;;
22794;SDS011;11564;50.920;11.612;2023-05-16T10:49:45;3.67;;;3.47;;
22794;SDS011;11564;50.920;11.612;2023-05-16T10:52:11;4.00;;;3.80;;
22794;SDS011;11564;50.920;11.612;2023-05-16T10:54:38;3.30;;;3.10;;
22794;SDS011;11564;50.920;11.612;2023-05-16T10:57:07;4.60;;;2.77;;
22794;SDS011;11564;50.920;11.612;2023-05-16T10:59:44;6.83;;;3.17;;
22794;SDS011;11564;50.920;11.612;2023-05-16T11:02:27;3.07;;;2.80;;
22794;SDS011;11564;50.920;11.612;2023-05-16T11:04:59;3.00;;;2.60;;
22794;SDS011;11564;50.920;11.612;2023-05-16T11:07:30;2.67;;;2.20;;
22794;SDS011;11564;50.920;11.612;2023-05-16T11:12:37;2.00;;;1.80;;
22794;SDS011;11564;50.920;11.612;2023-05-16T11:15:24;3.77;;;2.03;;
22794;SDS011;11564;50.920;11.612;2023-05-16T11:18:13;1.80;;;1.70;;
22794;SDS011;11564;50.920;11.612;2023-05-16T11:20:40;4.40;;;1.53;;
22794;SDS011;11564;50.920;11.612;2023-05-16T11:25:41;4.13;;;2.03;;
22794;SDS011;11564;50.920;11.612;2023-05-16T11:28:09;2.67;;;1.40;;
22794;SDS011;11564;50.920;11.612;2023-05-16T11:30:44;1.70;;;1.60;;
22794;SDS011;11564;50.920;11.612;2023-05-16T11:33:13;4.00;;;1.70;;
22794;SDS011;11564;50.920;11.612;2023-05-16T11:35:40;2.70;;;2.17;;
22794;SDS011;11564;50.920;11.612;2023-05-16T11:38:10;1.50;;;1.40;;
22794;SDS011;11564;50.920;11.612;2023-05-16T11:40:42;2.40;;;1.93;;
22794;SDS011;11564;50.920;11.612;2023-05-16T11:43:08;1.60;;;1.33;;
22794;SDS011;11564;50.920;11.612;2023-05-16T11:45:34;2.03;;;1.60;;
22794;SDS011;11564;50.920;11.612;2023-05-16T11:48:03;2.70;;;1.70;;
22794;SDS011;11564;50.920;11.612;2023-05-16T11:50:29;8.27;;;1.87;;
22794;SDS011;11564;50.920;11.612;2023-05-16T11:52:54;1.40;;;1.30;;
22794;SDS011;11564;50.920;11.612;2023-05-16T11:55:22;4.53;;;1.80;;
22794;SDS011;11564;50.920;11.612;2023-05-16T11:57:53;13.67;;;2.90;;
22794;SDS011;11564;50.920;11.612;2023-05-16T12:00:20;2.33;;;1.90;;
22794;SDS011;11564;50.920;11.612;2023-05-16T12:02:48;2.90;;;1.47;;
22794;SDS011;11564;50.920;11.612;2023-05-16T12:05:15;1.40;;;1.23;;
22794;SDS011;11564;50.920;11.612;2023-05-16T12:07:42;2.20;;;1.70;;
22794;SDS011;11564;50.920;11.612;2023-05-16T12:10:09;6.13;;;1.93;;
22794;SDS011;11564;50.920;11.612;2023-05-16T12:12:37;5.77;;;2.30;;
22794;SDS011;11564;50.920;11.612;2023-05-16T12:15:04;10.10;;;1.93;;
22794;SDS011;11564;50.920;11.612;2023-05-16T12:17:35;3.47;;;1.80;;
22794;SDS011;11564;50.920;11.612;2023-05-16T12:20:02;9.30;;;1.90;;
22794;SDS011;11564;50.920;11.612;2023-05-16T12:22:30;2.27;;;1.40;;
22794;SDS011;11564;50.920;11.612;2023-05-16T12:24:58;3.17;;;2.00;;
22794;SDS011;11564;50.920;11.612;2023-05-16T12:27:24;6.37;;;1.33;;
22794;SDS011;11564;50.920;11.612;2023-05-16T12:29:51;3.80;;;2.13;;
22794;SDS011;11564;50.920;11.612;2023-05-16T12:32:17;11.43;;;3.03;;
22794;SDS011;11564;50.920;11.612;2023-05-16T12:34:50;5.53;;;1.83;;
22794;SDS011;11564;50.920;11.612;2023-05-16T12:37:17;3.17;;;2.20;;
22794;SDS011;11564;50.920;11.612;2023-05-16T12:39:43;1.47;;;1.37;;
22794;SDS011;11564;50.920;11.612;2023-05-16T12:42:12;3.40;;;2.13;;
22794;SDS011;11564;50.920;11.612;2023-05-16T12:44:38;6.30;;;2.07;;
22794;SDS011;11564;50.920;11.612;2023-05-16T12:47:11;3.47;;;1.60;;
22794;SDS011;11564;50.920;11.612;2023-05-16T12:49:44;6.40;;;2.20;;
22794;SDS011;11564;50.920;11.612;2023-05-16T12:52:11;5.87;;;3.13;;
22794;SDS011;11564;50.920;11.612;2023-05-16T12:54:43;2.90;;;2.00;;
22794;SDS011;11564;50.920;11.612;2023-05-16T12:57:09;2.17;;;1.80;;
22794;SDS011;11564;50.920;11.612;2023-05-16T12:59:35;2.57;;;1.87;;
22794;SDS011;11564;50.920;11.612;2023-05-16T13:02:01;4.70;;;1.90;;
22794;SDS011;11564;50.920;11.612;2023-05-16T13:04:27;2.57;;;1.60;;
22794;SDS011;11564;50.920;11.612;2023-05-16T13:06:53;3.03;;;2.13;;
22794;SDS011;11564;50.920;11.612;2023-05-16T13:09:19;4.10;;;1.87;;
22794;SDS011;11564;50.920;11.612;2023-05-16T13:11:45;11.07;;;1.50;;
22794;SDS011;11564;50.920;11.612;2023-05-16T13:14:12;7.40;;;1.83;;
22794;SDS011;11564;50.920;11.612;2023-05-16T13:16:37;3.13;;;1.63;;
22794;SDS011;11564;50.920;11.612;2023-05-16T13:19:03;7.23;;;2.13;;
22794;SDS011;11564;50.920;11.612;2023-05-16T13:21:29;6.63;;;2.30;;
22794;SDS011;11564;50.920;11.612;2023-05-16T13:23:56;4.37;;;2.10;;
22794;SDS011;11564;50.920;11.612;2023-05-16T13:26:22;4.60;;;2.00;;
22794;SDS011;11564;50.920;11.612;2023-05-16T13:28:48;3.10;;;1.70;;
22794;SDS011;11564;50.920;11.612;2023-05-16T13:31:16;3.60;;;2.53;;
22794;SDS011;11564;50.920;11.612;2023-05-16T13:33:42;6.50;;;2.20;;
22794;SDS011;11564;50.920;11.612;2023-05-16T13:36:08;4.93;;;1.50;;
22794;SDS011;11564;50.920;11.612;2023-05-16T13:38:34;5.23;;;1.80;;
22794;SDS011;11564;50.920;11.612;2023-05-16T13:41:00;3.40;;;1.60;;
22794;SDS011;11564;50.920;11.612;2023-05-16T13:43:26;4.80;;;2.10;;
22794;SDS011;11564;50.920;11.612;2023-05-16T13:45:51;4.60;;;1.97;;
22794;SDS011;11564;50.920;11.612;2023-05-16T13:48:17;6.00;;;1.77;;
22794;SDS011;11564;50.920;11.612;2023-05-16T13:50:43;5.60;;;1.77;;
22794;SDS011;11564;50.920;11.612;2023-05-16T13:53:09;8.87;;;1.90;;
22794;SDS011;11564;50.920;11.612;2023-05-16T13:55:35;4.27;;;1.40;;
22794;SDS011;11564;50.920;11.612;2023-05-16T13:58:01;5.83;;;1.53;;
22794;SDS011;11564;50.920;11.612;2023-05-16T14:00:27;4.30;;;1.60;;
22794;SDS011;11564;50.920;11.612;2023-05-16T14:02:53;7.70;;;2.07;;
22794;SDS011;11564;50.920;11.612;2023-05-16T14:05:19;3.30;;;1.80;;
22794;SDS011;11564;50.920;11.612;2023-05-16T14:07:44;3.80;;;1.20;;
22794;SDS011;11564;50.920;11.612;2023-05-16T14:10:10;5.20;;;1.70;;
22794;SDS011;11564;50.920;11.612;2023-05-16T14:12:36;4.73;;;1.80;;
22794;SDS011;11564;50.920;11.612;2023-05-16T14:15:02;5.73;;;1.90;;
22794;SDS011;11564;50.920;11.612;2023-05-16T14:17:28;5.43;;;2.20;;
22794;SDS011;11564;50.920;11.612;2023-05-16T14:19:54;6.60;;;2.70;;
22794;SDS011;11564;50.920;11.612;2023-05-16T14:22:20;1.73;;;1.20;;
22794;SDS011;11564;50.920;11.612;2023-05-16T14:24:45;8.20;;;1.80;;
22794;SDS011;11564;50.920;11.612;2023-05-16T14:27:11;6.77;;;1.87;;
22794;SDS011;11564;50.920;11.612;2023-05-16T14:29:39;12.20;;;2.60;;
22794;SDS011;11564;50.920;11.612;2023-05-16T14:32:04;6.43;;;1.73;;
22794;SDS011;11564;50.920;11.612;2023-05-16T14:34:30;2.07;;;1.40;;
22794;SDS011;11564;50.920;11.612;2023-05-16T14:36:56;4.03;;;1.80;;